Time;durP1;ratioP1;P1;durP2;ratioP2;P2;SDS_P1;SDS_P2;PMS_P1;PMS_P2;Temp;Humidity;BMP_temperature;BMP_pressure;BME280_temperature;BME280_humidity;BME280_pressure;Samples;Min_cycle;Max_cycle;Signal;HPM_P1;HPM_P2
2021/07/30 00:00:58;;;;;;;13.27;4.35;;;665.90;1459.20;;;;;;5096692;28;20020;-68
2021/07/30 00:03:23;;;;;;;11.35;4.20;;;665.80;1459.20;;;;;;5096667;28;20054;-68
2021/07/30 00:05:53;;;;;;;7.35;4.10;;;665.80;1459.20;;;;;;5096371;28;20559;-70
2021/07/30 00:08:19;;;;;;;11.40;4.47;;;665.80;1484.80;;;;;;5096319;28;20028;-68
2021/07/30 00:10:47;;;;;;;10.88;4.30;;;665.80;1459.20;;;;;;5095102;28;20024;-68
2021/07/30 00:13:13;;;;;;;14.25;5.28;;;665.80;1484.80;;;;;;5096213;28;20108;-68
2021/07/30 00:15:39;;;;;;;12.55;4.45;;;665.70;1484.80;;;;;;5095033;28;20433;-69
2021/07/30 00:18:05;;;;;;;12.48;4.43;;;665.70;1484.80;;;;;;5096009;28;20080;-68
2021/07/30 00:20:31;;;;;;;10.48;4.97;;;665.70;1484.80;;;;;;5095008;28;20036;-68
2021/07/30 00:22:57;;;;;;;11.70;4.38;;;665.70;1484.80;;;;;;5096439;28;20040;-69
2021/07/30 00:25:23;;;;;;;12.05;4.50;;;665.60;1510.40;;;;;;5096107;28;20484;-68
2021/07/30 00:27:49;;;;;;;13.07;4.80;;;665.70;1510.40;;;;;;5095785;28;20554;-68
2021/07/30 00:30:15;;;;;;;12.82;4.63;;;665.60;1510.40;;;;;;5096052;28;20107;-68
2021/07/30 00:32:40;;;;;;;16.80;4.88;;;640.90;1484.80;;;;;;5096053;28;20028;-68
2021/07/30 00:35:07;;;;;;;12.65;4.75;;;640.90;1484.80;;;;;;5095981;28;20040;-68
2021/07/30 00:37:37;;;;;;;16.48;4.80;;;640.80;1510.40;;;;;;5095628;28;20028;-68
2021/07/30 00:40:04;;;;;;;11.75;4.90;;;640.80;1510.40;;;;;;5095437;28;20040;-68
2021/07/30 00:42:31;;;;;;;13.63;4.43;;;640.80;1510.40;;;;;;5095473;28;20044;-68
2021/07/30 00:45:00;;;;;;;14.82;4.78;;;640.70;1510.40;;;;;;5094124;28;20028;-68
2021/07/30 00:47:29;;;;;;;13.73;5.47;;;640.70;1510.40;;;;;;5095736;28;20059;-68
2021/07/30 00:49:56;;;;;;;11.30;4.40;;;640.60;1510.40;;;;;;5095684;28;20473;-68
2021/07/30 00:52:22;;;;;;;14.50;4.97;;;640.60;1536.00;;;;;;5095487;28;20027;-68
2021/07/30 00:54:47;;;;;;;16.42;4.90;;;640.60;1536.00;;;;;;5095157;28;20347;-68
2021/07/30 00:57:13;;;;;;;16.55;5.35;;;640.60;1536.00;;;;;;5093782;28;20024;-68
2021/07/30 00:59:39;;;;;;;18.58;5.18;;;640.50;1536.00;;;;;;5095394;28;20024;-68
2021/07/30 01:02:05;;;;;;;15.93;5.10;;;640.50;1536.00;;;;;;5095525;28;20016;-68
2021/07/30 01:04:31;;;;;;;19.83;5.15;;;640.50;1561.60;;;;;;5094188;28;20062;-68
2021/07/30 01:06:57;;;;;;;17.45;5.03;;;640.30;1561.60;;;;;;5095110;28;20028;-68
2021/07/30 01:09:23;;;;;;;9.63;4.80;;;640.30;1561.60;;;;;;5095158;28;20024;-68
2021/07/30 01:11:49;;;;;;;11.13;4.32;;;640.30;1561.60;;;;;;5094927;28;20386;-68
2021/07/30 01:14:15;;;;;;;11.65;4.65;;;640.30;1561.60;;;;;;5095257;28;20045;-68
2021/07/30 01:16:41;;;;;;;12.85;5.00;;;640.20;1587.20;;;;;;5095366;28;20475;-68
2021/07/30 01:19:22;;;;;;;9.95;4.45;;;640.10;1587.20;;;;;;5095204;28;20024;-69
2021/07/30 01:21:50;;;;;;;16.50;4.90;;;640.10;1587.20;;;;;;5095175;28;20020;-69
2021/07/30 01:24:17;;;;;;;12.82;4.90;;;640.10;1587.20;;;;;;5094839;28;20032;-68
2021/07/30 01:26:43;;;;;;;10.88;4.88;;;640.00;1612.80;;;;;;5094774;28;20389;-68
2021/07/30 01:29:09;;;;;;;14.18;5.88;;;640.00;1612.80;;;;;;5094914;28;20036;-68
2021/07/30 01:31:35;;;;;;;15.40;5.93;;;640.00;1612.80;;;;;;5094921;28;20020;-68
2021/07/30 01:34:00;;;;;;;15.57;6.53;;;640.00;1612.80;;;;;;5094871;28;20028;-67
2021/07/30 01:36:26;;;;;;;9.75;5.28;;;615.30;1612.80;;;;;;5094577;28;20032;-68
2021/07/30 01:38:52;;;;;;;14.93;5.35;;;615.30;1638.40;;;;;;5094756;28;20028;-68
2021/07/30 01:41:17;;;;;;;12.50;5.55;;;615.20;1638.40;;;;;;5094520;28;20103;-67
2021/07/30 01:43:44;;;;;;;10.50;5.03;;;615.20;1638.40;;;;;;5094129;28;20066;-69
2021/07/30 01:46:10;;;;;;;9.85;4.70;;;615.20;1638.40;;;;;;5094702;28;20081;-67
2021/07/30 01:48:36;;;;;;;11.73;5.40;;;615.20;1638.40;;;;;;5094555;28;20040;-68
2021/07/30 01:51:03;;;;;;;8.63;5.20;;;615.20;1664.00;;;;;;5094319;28;20028;-68
2021/07/30 01:53:29;;;;;;;11.75;4.90;;;615.20;1664.00;;;;;;5094265;28;20019;-68
2021/07/30 01:55:55;;;;;;;8.82;5.03;;;615.10;1664.00;;;;;;5094511;28;20044;-69
2021/07/30 01:58:21;;;;;;;9.98;5.10;;;615.10;1664.00;;;;;;5094377;28;20058;-67
2021/07/30 02:00:47;;;;;;;19.02;6.15;;;615.10;1638.40;;;;;;5093145;28;20024;-68
2021/07/30 02:03:13;;;;;;;8.38;5.18;;;615.10;1638.40;;;;;;5094354;28;20035;-68
2021/07/30 02:05:39;;;;;;;11.35;5.18;;;615.10;1612.80;;;;;;5093260;28;20115;-68
2021/07/30 02:08:05;;;;;;;9.70;4.20;;;615.10;1612.80;;;;;;5094271;28;20036;-67
2021/07/30 02:10:32;;;;;;;10.98;4.53;;;615.10;1587.20;;;;;;5093978;28;20028;-68
2021/07/30 02:15:42;;;;;;;7.35;4.10;;;615.10;1561.60;;;;;;5093999;28;20077;-68
2021/07/30 02:18:08;;;;;;;8.43;4.40;;;615.00;1536.00;;;;;;5094122;28;20408;-67
2021/07/30 02:20:34;;;;;;;9.70;3.88;;;615.10;1536.00;;;;;;5094478;28;20099;-68
2021/07/30 02:23:00;;;;;;;6.65;3.55;;;615.10;1536.00;;;;;;5093901;28;20452;-68
2021/07/30 02:25:25;;;;;;;7.35;4.05;;;615.10;1510.40;;;;;;5094023;28;20020;-68
2021/07/30 02:27:51;;;;;;;6.97;3.78;;;615.10;1510.40;;;;;;5093969;28;20038;-67
2021/07/30 02:30:17;;;;;;;6.68;4.00;;;615.10;1510.40;;;;;;5093769;28;20020;-68
2021/07/30 02:32:42;;;;;;;7.13;3.75;;;615.10;1484.80;;;;;;5094036;28;20028;-67
2021/07/30 02:35:08;;;;;;;8.45;3.97;;;615.10;1484.80;;;;;;5093950;28;20343;-67
2021/07/30 02:37:34;;;;;;;5.93;3.40;;;615.10;1484.80;;;;;;5093599;28;20046;-68
2021/07/30 02:40:00;;;;;;;7.07;4.68;;;615.10;1459.20;;;;;;5093857;28;20024;-68
2021/07/30 02:42:26;;;;;;;13.00;4.25;;;615.20;1459.20;;;;;;5093508;28;20474;-71
2021/07/30 02:44:51;;;;;;;10.73;4.07;;;615.20;1484.80;;;;;;5093396;28;20024;-68
2021/07/30 02:47:17;;;;;;;6.25;4.00;;;615.10;1484.80;;;;;;5093745;28;20519;-68
2021/07/30 02:49:43;;;;;;;5.45;3.70;;;615.10;1484.80;;;;;;5093729;28;20134;-67
2021/07/30 02:52:09;;;;;;;5.13;3.80;;;615.10;1459.20;;;;;;5093714;28;20027;-68
2021/07/30 02:54:34;;;;;;;4.20;3.60;;;615.10;1484.80;;;;;;5093367;28;20090;-69
2021/07/30 02:57:00;;;;;;;10.98;4.28;;;615.00;1484.80;;;;;;5093038;28;20024;-68
2021/07/30 02:59:26;;;;;;;9.38;3.80;;;615.00;1484.80;;;;;;5093773;28;20024;-67
2021/07/30 03:01:51;;;;;;;7.15;4.47;;;615.00;1484.80;;;;;;5093617;28;20028;-68
2021/07/30 03:04:17;;;;;;;14.38;4.80;;;615.00;1484.80;;;;;;5093748;28;20028;-67
2021/07/30 03:06:43;;;;;;;5.57;3.95;;;615.00;1484.80;;;;;;5093276;28;20112;-70
2021/07/30 03:09:08;;;;;;;8.88;4.90;;;615.00;1484.80;;;;;;5093461;28;20036;-68
2021/07/30 03:11:34;;;;;;;7.20;3.58;;;615.00;1459.20;;;;;;5093468;28;20065;-68
2021/07/30 03:14:00;;;;;;;6.45;4.07;;;615.00;1459.20;;;;;;5092022;28;20431;-67
2021/07/30 03:16:25;;;;;;;10.32;4.28;;;615.00;1433.60;;;;;;5093744;28;20090;-68
2021/07/30 03:18:51;;;;;;;7.20;3.35;;;615.00;1433.60;;;;;;5093281;28;20032;-68
2021/07/30 03:21:17;;;;;;;7.63;3.55;;;615.00;1433.60;;;;;;5096414;28;20028;-68
2021/07/30 03:23:42;;;;;;;8.60;3.58;;;615.00;1433.60;;;;;;5097126;28;20039;-68
2021/07/30 03:26:08;;;;;;;5.93;3.45;;;615.10;1433.60;;;;;;5097349;28;20032;-68
2021/07/30 03:28:34;;;;;;;6.63;3.33;;;615.10;1433.60;;;;;;5097034;28;20081;-67
2021/07/30 03:31:00;;;;;;;6.03;3.20;;;615.10;1408.00;;;;;;5097554;28;20024;-67
2021/07/30 03:33:27;;;;;;;6.05;3.50;;;615.10;1408.00;;;;;;5097121;28;20055;-67
2021/07/30 03:35:53;;;;;;;3.75;3.28;;;615.10;1408.00;;;;;;5095898;28;20107;-68
2021/07/30 03:38:18;;;;;;;9.57;4.43;;;615.10;1408.00;;;;;;5097115;28;20043;-71
2021/07/30 03:40:44;;;;;;;5.25;3.60;;;615.10;1408.00;;;;;;5096487;28;20461;-68
2021/07/30 03:43:11;;;;;;;6.22;3.70;;;615.10;1408.00;;;;;;5096934;28;20508;-68
2021/07/30 03:45:36;;;;;;;6.82;3.65;;;615.20;1408.00;;;;;;5096947;28;20016;-68
2021/07/30 03:48:02;;;;;;;5.80;3.65;;;615.10;1408.00;;;;;;5096559;28;20032;-67
2021/07/30 03:50:28;;;;;;;6.15;3.17;;;615.10;1408.00;;;;;;5095262;28;20024;-68
2021/07/30 03:52:54;;;;;;;11.85;3.92;;;615.20;1408.00;;;;;;5096873;28;20383;-70
2021/07/30 03:55:19;;;;;;;7.13;3.95;;;615.10;1408.00;;;;;;5096621;28;20024;-67
2021/07/30 03:57:45;;;;;;;11.82;3.75;;;615.20;1408.00;;;;;;5095312;28;20035;-68
2021/07/30 04:00:11;;;;;;;5.30;3.53;;;615.20;1408.00;;;;;;5096365;28;20025;-68
2021/07/30 04:02:37;;;;;;;10.90;4.68;;;615.20;1408.00;;;;;;5096128;28;20043;-67
2021/07/30 04:05:03;;;;;;;5.93;3.58;;;615.30;1408.00;;;;;;5095364;28;20457;-68
2021/07/30 04:07:29;;;;;;;7.35;3.38;;;615.30;1408.00;;;;;;5094956;28;20078;-67
2021/07/30 04:09:54;;;;;;;6.50;3.70;;;615.30;1408.00;;;;;;5096092;28;20447;-67
2021/07/30 04:12:23;;;;;;;8.35;3.88;;;615.30;1408.00;;;;;;5096408;28;20057;-67
2021/07/30 04:14:49;;;;;;;7.57;3.60;;;615.30;1408.00;;;;;;5095258;28;20020;-69
2021/07/30 04:17:15;;;;;;;6.28;3.28;;;615.30;1408.00;;;;;;5096256;28;20133;-68
2021/07/30 04:19:43;;;;;;;8.23;4.03;;;615.30;1408.00;;;;;;5096489;28;20047;-67
2021/07/30 04:22:10;;;;;;;6.78;3.70;;;615.30;1408.00;;;;;;5096196;28;20394;-67
2021/07/30 04:24:36;;;;;;;10.00;4.20;;;615.30;1408.00;;;;;;5096341;28;20035;-67
2021/07/30 04:27:02;;;;;;;8.40;4.22;;;615.30;1408.00;;;;;;5095896;28;20036;-67
2021/07/30 04:29:28;;;;;;;6.07;3.92;;;615.30;1408.00;;;;;;5095219;28;20057;-67
2021/07/30 04:31:54;;;;;;;6.43;3.75;;;615.30;1408.00;;;;;;5094105;28;20028;-67
2021/07/30 04:34:19;;;;;;;4.95;3.47;;;640.00;1408.00;;;;;;5096032;28;20531;-67
2021/07/30 04:36:45;;;;;;;6.28;3.72;;;640.00;1408.00;;;;;;5095834;28;20024;-67
2021/07/30 04:39:11;;;;;;;15.05;4.25;;;640.00;1408.00;;;;;;5094347;28;20481;-67
2021/07/30 04:41:36;;;;;;;5.40;3.88;;;640.00;1408.00;;;;;;5095921;28;20020;-67
2021/07/30 04:44:02;;;;;;;9.02;4.05;;;640.10;1408.00;;;;;;5095631;28;20047;-68
2021/07/30 04:46:28;;;;;;;8.85;3.70;;;640.10;1408.00;;;;;;5095706;28;20027;-67
2021/07/30 04:48:54;;;;;;;6.93;3.70;;;640.20;1408.00;;;;;;5096144;28;20058;-67
2021/07/30 04:51:19;;;;;;;8.43;3.85;;;640.20;1408.00;;;;;;5095908;28;20667;-68
2021/07/30 04:53:49;;;;;;;11.98;3.72;;;640.30;1408.00;;;;;;5095577;28;20099;-67
2021/07/30 04:56:19;;;;;;;8.02;3.75;;;640.30;1382.40;;;;;;5095357;28;20028;-67
2021/07/30 04:58:46;;;;;;;6.18;3.40;;;640.30;1382.40;;;;;;5094396;28;20373;-67
2021/07/30 05:01:12;;;;;;;8.45;3.75;;;640.40;1382.40;;;;;;5095530;28;20461;-67
2021/07/30 05:03:37;;;;;;;9.65;4.30;;;640.50;1382.40;;;;;;5094326;28;20047;-67
2021/07/30 05:06:13;;;;;;;6.75;3.90;;;640.50;1382.40;;;;;;5095429;28;20025;-67
2021/07/30 05:08:40;;;;;;;10.55;3.60;;;640.60;1382.40;;;;;;5095129;28;20063;-67
2021/07/30 05:11:05;;;;;;;7.60;3.55;;;640.60;1356.80;;;;;;5095299;28;20039;-67
2021/07/30 05:13:31;;;;;;;7.70;3.45;;;640.70;1356.80;;;;;;5095582;28;20024;-67
2021/07/30 05:15:58;;;;;;;6.05;3.88;;;640.70;1356.80;;;;;;5096144;28;20488;-67
2021/07/30 05:18:24;;;;;;;8.82;3.95;;;640.70;1356.80;;;;;;5094989;28;20385;-68
2021/07/30 05:20:49;;;;;;;9.15;3.78;;;640.80;1356.80;;;;;;5095209;28;20020;-72
2021/07/30 05:23:15;;;;;;;5.85;3.85;;;640.80;1356.80;;;;;;5095141;28;20588;-70
2021/07/30 05:25:41;;;;;;;7.32;3.95;;;640.80;1356.80;;;;;;5095135;28;20020;-67
2021/07/30 05:28:06;;;;;;;15.32;4.40;;;640.80;1356.80;;;;;;5094273;28;20040;-67
2021/07/30 05:30:34;;;;;;;5.30;3.95;;;640.90;1356.80;;;;;;5093083;28;20039;-68
2021/07/30 05:33:00;;;;;;;9.38;4.43;;;640.90;1356.80;;;;;;5094541;28;20473;-68
2021/07/30 05:35:26;;;;;;;7.78;4.15;;;665.60;1382.40;;;;;;5094715;28;20070;-67
2021/07/30 05:37:52;;;;;;;6.60;3.97;;;665.60;1408.00;;;;;;5094305;28;20376;-68
2021/07/30 05:40:17;;;;;;;6.70;4.10;;;665.60;1382.40;;;;;;5093922;28;20020;-70
2021/07/30 05:42:43;;;;;;;5.47;3.85;;;665.70;1408.00;;;;;;5093963;28;20405;-67
2021/07/30 05:45:09;;;;;;;7.53;3.95;;;665.70;1408.00;;;;;;5094532;28;20020;-70
2021/07/30 05:47:35;;;;;;;5.35;3.97;;;665.80;1408.00;;;;;;5094405;28;20040;-72
2021/07/30 05:50:00;;;;;;;10.77;4.50;;;665.80;1408.00;;;;;;5094432;28;20024;-69
2021/07/30 05:52:26;;;;;;;18.67;5.45;;;665.90;1408.00;;;;;;5094355;28;20063;-69
2021/07/30 05:54:52;;;;;;;61.30;7.07;;;666.00;1408.00;;;;;;5092726;28;20027;-67
2021/07/30 05:57:17;;;;;;;36.53;6.40;;;666.10;1408.00;;;;;;5094449;28;20110;-67
2021/07/30 05:59:47;;;;;;;20.80;4.80;;;666.10;1408.00;;;;;;5094343;28;20039;-68
2021/07/30 06:02:13;;;;;;;17.80;4.55;;;666.10;1408.00;;;;;;5094473;28;20031;-67
2021/07/30 06:04:39;;;;;;;11.80;4.35;;;666.20;1408.00;;;;;;5094465;28;20027;-69
2021/07/30 06:07:05;;;;;;;9.48;4.25;;;666.30;1408.00;;;;;;5094004;28;20051;-67
2021/07/30 06:09:30;;;;;;;13.93;4.07;;;666.30;1408.00;;;;;;5093924;28;20066;-68
2021/07/30 06:11:57;;;;;;;8.88;3.80;;;666.40;1382.40;;;;;;5094034;28;20084;-69
2021/07/30 06:14:23;;;;;;;8.23;4.30;;;666.40;1382.40;;;;;;5093298;28;20389;-69
2021/07/30 06:16:49;;;;;;;6.35;4.07;;;691.20;1382.40;;;;;;5088930;28;20040;-73
2021/07/30 06:19:14;;;;;;;7.28;4.80;;;691.20;1382.40;;;;;;5092543;28;20039;-72
2021/07/30 06:21:40;;;;;;;9.18;4.63;;;691.30;1382.40;;;;;;5092541;28;20024;-69
2021/07/30 06:24:06;;;;;;;9.00;3.90;;;691.40;1382.40;;;;;;5092585;28;20016;-70
2021/07/30 06:26:32;;;;;;;11.23;4.18;;;691.50;1382.40;;;;;;5093607;28;20043;-69
2021/07/30 06:28:57;;;;;;;9.80;3.88;;;691.70;1356.80;;;;;;5093867;28;20040;-70
2021/07/30 06:31:23;;;;;;;5.88;3.88;;;691.80;1356.80;;;;;;5094070;28;20031;-67
2021/07/30 06:33:49;;;;;;;7.50;4.10;;;691.90;1331.20;;;;;;5093633;28;20031;-67
2021/07/30 06:36:18;;;;;;;5.55;3.85;;;692.00;1305.60;;;;;;5093818;28;20028;-68
2021/07/30 06:38:44;;;;;;;9.63;4.38;;;716.80;1331.20;;;;;;5093891;28;20047;-67
2021/07/30 06:41:14;;;;;;;10.50;4.28;;;716.90;1331.20;;;;;;5094001;28;20077;-67
2021/07/30 06:43:39;;;;;;;7.20;4.25;;;717.20;1305.60;;;;;;5093522;28;20138;-70
2021/07/30 06:46:05;;;;;;;7.78;4.15;;;717.50;1305.60;;;;;;5093624;28;20150;-71
2021/07/30 06:48:31;;;;;;;7.25;4.38;;;742.40;1305.60;;;;;;5094138;28;20036;-71
2021/07/30 06:50:57;;;;;;;7.93;3.78;;;742.60;1280.00;;;;;;5093720;28;20020;-72
2021/07/30 06:53:23;;;;;;;33.47;6.22;;;742.90;1254.40;;;;;;5093676;28;20107;-68
2021/07/30 06:55:48;;;;;;;29.52;6.00;;;743.10;1228.80;;;;;;5096254;28;20020;-76
2021/07/30 06:58:14;;;;;;;31.33;6.47;;;743.30;1228.80;;;;;;5098013;28;20028;-73
2021/07/30 07:00:40;;;;;;;102.18;11.80;;;768.20;1203.20;;;;;;5097843;28;20073;-68
2021/07/30 07:03:06;;;;;;;108.93;9.65;;;768.40;1203.20;;;;;;5097791;28;20492;-72
2021/07/30 07:05:33;;;;;;;49.03;6.68;;;768.70;1177.60;;;;;;5097810;28;20020;-68
2021/07/30 07:07:59;;;;;;;33.15;5.88;;;793.60;1177.60;;;;;;5097560;28;20146;-68
2021/07/30 07:10:24;;;;;;;31.65;6.40;;;793.80;1177.60;;;;;;5097457;28;20513;-72
2021/07/30 07:12:50;;;;;;;26.15;4.90;;;794.00;1152.00;;;;;;5097486;28;20119;-71
2021/07/30 07:15:16;;;;;;;21.15;4.70;;;794.30;1152.00;;;;;;5096532;28;20062;-69
2021/07/30 07:17:41;;;;;;;47.55;7.07;;;794.50;1152.00;;;;;;5097600;28;20060;-72
2021/07/30 07:20:08;;;;;;;39.10;6.07;;;819.20;1126.40;;;;;;5097322;28;20107;-72
2021/07/30 07:22:34;;;;;;;56.17;7.55;;;819.50;1126.40;;;;;;5096980;28;20032;-70
2021/07/30 07:24:59;;;;;;;56.22;8.43;;;819.70;1100.80;;;;;;5096992;28;20355;-68
2021/07/30 07:27:25;;;;;;;25.88;5.45;;;819.90;1075.20;;;;;;5097135;28;20107;-67
2021/07/30 07:29:51;;;;;;;13.82;4.55;;;820.00;1075.20;;;;;;5097340;28;20024;-69
2021/07/30 07:32:17;;;;;;;11.82;4.03;;;844.90;1049.60;;;;;;5097233;28;20411;-68
2021/07/30 07:34:42;;;;;;;9.30;3.85;;;845.00;1049.60;;;;;;5097476;28;20023;-69
2021/07/30 07:37:08;;;;;;;4.78;3.72;;;845.30;1024.00;;;;;;5097059;28;20373;-68
2021/07/30 07:39:34;;;;;;;10.18;3.50;;;845.40;1024.00;;;;;;5096922;28;20024;-68
2021/07/30 07:42:00;;;;;;;5.40;3.20;;;845.70;1024.00;;;;;;5097038;28;20026;-68
2021/07/30 07:44:25;;;;;;;7.55;3.38;;;870.50;998.40;;;;;;5096844;28;20500;-69
2021/07/30 07:46:51;;;;;;;4.65;3.08;;;870.60;972.80;;;;;;5096627;28;20111;-69
2021/07/30 07:49:17;;;;;;;6.65;3.33;;;870.80;972.80;;;;;;5096618;28;20066;-69
2021/07/30 07:51:43;;;;;;;5.18;3.40;;;870.90;972.80;;;;;;5096904;28;20028;-68
2021/07/30 07:54:09;;;;;;;16.10;4.30;;;871.00;972.80;;;;;;5096772;28;20462;-69
2021/07/30 07:56:35;;;;;;;10.13;3.20;;;871.20;947.20;;;;;;5096282;28;20040;-68
2021/07/30 07:59:01;;;;;;;9.77;3.42;;;871.30;921.60;;;;;;5096550;28;20024;-68
2021/07/30 08:01:27;;;;;;;12.80;3.97;;;896.00;921.60;;;;;;5096460;28;20042;-68
2021/07/30 08:03:53;;;;;;;3.88;3.00;;;896.20;896.00;;;;;;5096690;28;20024;-69
2021/07/30 08:06:21;;;;;;;21.42;4.40;;;896.20;870.40;;;;;;5096015;28;20371;-68
2021/07/30 08:08:47;;;;;;;10.45;3.60;;;896.50;870.40;;;;;;5096806;28;20062;-68
2021/07/30 08:11:13;;;;;;;5.60;3.00;;;896.70;844.80;;;;;;5096363;28;20024;-68
2021/07/30 08:13:39;;;;;;;11.57;3.08;;;896.90;844.80;;;;;;5096507;28;20051;-68
2021/07/30 08:16:05;;;;;;;6.30;2.53;;;896.90;819.20;;;;;;5096033;28;20038;-68
2021/07/30 08:18:32;;;;;;;4.80;3.17;;;921.70;844.80;;;;;;5096285;28;20036;-67
2021/07/30 08:20:59;;;;;;;3.40;2.50;;;921.80;844.80;;;;;;5096230;28;20082;-69
2021/07/30 08:23:25;;;;;;;8.77;2.60;;;922.00;819.20;;;;;;5096347;28;20032;-71
2021/07/30 08:25:51;;;;;;;6.00;2.90;;;922.10;793.60;;;;;;5095514;28;20138;-72
2021/07/30 08:28:17;;;;;;;3.92;3.10;;;922.10;793.60;;;;;;5095689;28;20112;-68
2021/07/30 08:30:43;;;;;;;40.08;8.35;;;922.30;793.60;;;;;;5096284;28;20403;-68
2021/07/30 08:33:09;;;;;;;28.67;5.22;;;922.40;793.60;;;;;;5095986;28;20108;-68
2021/07/30 08:35:35;;;;;;;8.63;2.90;;;922.50;793.60;;;;;;5095883;28;20119;-68
2021/07/30 08:38:01;;;;;;;14.95;3.60;;;922.50;768.00;;;;;;5095948;28;20085;-68
2021/07/30 08:40:31;;;;;;;12.18;3.00;;;947.20;768.00;;;;;;5094778;28;20446;-73
2021/07/30 08:42:58;;;;;;;117.28;10.70;;;947.40;768.00;;;;;;5093435;28;20131;-82
2021/07/30 08:45:24;;;;;;;158.13;17.80;;;947.40;819.20;;;;;;5094318;28;20074;-72
2021/07/30 08:47:51;;;;;;;95.50;9.38;;;947.60;793.60;;;;;;5094228;28;20031;-70
2021/07/30 08:50:17;;;;;;;140.63;13.00;;;947.70;742.40;;;;;;5094612;28;20019;-67
2021/07/30 08:52:44;;;;;;;104.40;11.85;;;947.80;768.00;;;;;;5094225;28;20052;-69
2021/07/30 08:55:15;;;;;;;77.95;9.80;;;947.80;742.40;;;;;;5094114;28;20016;-70
2021/07/30 08:57:44;;;;;;;39.25;6.57;;;947.90;742.40;;;;;;5091602;28;20063;-69
2021/07/30 09:00:12;;;;;;;118.75;13.15;;;948.00;716.80;;;;;;5089190;28;20032;-69
2021/07/30 09:02:38;;;;;;;55.42;6.20;;;972.80;768.00;;;;;;5090693;28;20024;-68
2021/07/30 09:05:30;;;;;;;18.33;4.38;;;972.80;716.80;;;;;;5095159;28;20485;-70
2021/07/30 09:07:59;;;;;;;66.90;12.15;;;972.90;742.40;;;;;;5095116;28;20062;-67
2021/07/30 09:10:30;;;;;;;53.33;9.90;;;972.80;768.00;;;;;;5095341;28;20081;-69
2021/07/30 09:13:19;;;;;;;48.25;9.95;;;972.90;716.80;;;;;;5093799;28;20028;-67
2021/07/30 09:15:47;;;;;;;24.05;5.55;;;973.00;742.40;;;;;;5095309;28;20051;-67
2021/07/30 09:18:33;;;;;;;17.38;4.30;;;973.20;691.20;;;;;;5094187;28;20499;-71
2021/07/30 09:21:30;;;;;;;39.05;5.22;;;973.30;691.20;;;;;;5094968;28;20377;-69
2021/07/30 09:24:00;;;;;;;91.07;11.55;;;973.30;691.20;;;;;;5094481;28;20020;-67
2021/07/30 09:26:31;;;;;;;39.28;6.50;;;973.30;742.40;;;;;;5093339;28;20020;-74
2021/07/30 09:28:59;;;;;;;66.82;9.68;;;973.50;716.80;;;;;;5091250;28;20046;-74
2021/07/30 09:31:51;;;;;;;64.65;7.93;;;973.50;716.80;;;;;;5093420;28;20073;-67
2021/07/30 09:34:18;;;;;;;34.38;5.15;;;973.60;691.20;;;;;;5089309;28;20119;-66
2021/07/30 09:36:51;;;;;;;22.90;4.75;;;973.70;665.60;;;;;;5093292;28;20457;-63
2021/07/30 09:39:34;;;;;;;8.55;3.47;;;998.40;691.20;;;;;;5090577;28;20418;-62
2021/07/30 09:42:24;;;;;;;18.35;3.80;;;998.40;691.20;;;;;;5074220;28;20031;-65
2021/07/30 09:44:59;;;;;;;20.38;3.40;;;998.50;691.20;;;;;;5012592;28;20492;-66
2021/07/30 09:47:27;;;;;;;7.43;3.15;;;998.60;665.60;;;;;;5012522;28;20034;-65
2021/07/30 09:50:09;;;;;;;4.63;2.90;;;998.60;665.60;;;;;;5012462;28;20037;-65
2021/07/30 09:52:42;;;;;;;8.85;3.15;;;998.70;640.00;;;;;;5012534;28;20026;-70
2021/07/30 09:55:09;;;;;;;20.65;4.13;;;998.70;665.60;;;;;;5012651;28;20036;-71
2021/07/30 09:57:37;;;;;;;22.30;4.55;;;998.70;640.00;;;;;;5012379;28;20026;-70
2021/07/30 10:00:05;;;;;;;29.38;4.72;;;998.80;665.60;;;;;;5012308;28;20021;-70
2021/07/30 10:02:33;;;;;;;20.05;5.10;;;998.80;640.00;;;;;;5012486;28;20121;-71
2021/07/30 10:05:00;;;;;;;14.50;3.63;;;998.90;640.00;;;;;;5012346;28;20046;-68
2021/07/30 10:07:27;;;;;;;17.52;4.00;;;999.00;640.00;;;;;;5012376;28;20037;-66
2021/07/30 10:10:02;;;;;;;4.22;2.95;;;999.00;665.60;;;;;;5012142;28;20033;-64
2021/07/30 10:12:30;;;;;;;5.32;2.88;;;999.10;640.00;;;;;;5012357;28;20026;-69
2021/07/30 10:14:58;;;;;;;8.77;3.00;;;999.20;640.00;;;;;;5012124;28;20034;-65
2021/07/30 10:17:32;;;;;;;4.57;2.90;;;999.30;640.00;;;;;;5011995;28;20121;-65
2021/07/30 10:20:05;;;;;;;4.45;2.95;;;1024.00;614.40;;;;;;5012089;28;20559;-64
2021/07/30 10:22:37;;;;;;;3.47;3.15;;;1024.00;614.40;;;;;;5058863;28;20478;-64
2021/07/30 10:25:05;;;;;;;6.88;3.00;;;1024.00;614.40;;;;;;5073693;28;20055;-69
2021/07/30 10:27:31;;;;;;;9.07;3.10;;;1024.10;614.40;;;;;;5073924;28;20128;-68
2021/07/30 10:30:04;;;;;;;7.38;3.40;;;1024.10;614.40;;;;;;5071850;28;20044;-66
2021/07/30 10:32:48;;;;;;;4.63;3.22;;;1024.10;614.40;;;;;;5073964;28;20371;-64
2021/07/30 10:35:26;;;;;;;42.42;5.82;;;1024.20;614.40;;;;;;5073663;28;20119;-65
2021/07/30 10:38:08;;;;;;;20.45;4.90;;;1024.20;640.00;;;;;;5073741;28;20032;-70
2021/07/30 10:40:34;;;;;;;11.43;3.58;;;1024.20;640.00;;;;;;5073451;28;20017;-70
2021/07/30 10:43:08;;;;;;;7.25;3.10;;;1024.40;614.40;;;;;;5073411;28;20098;-65
2021/07/30 10:45:38;;;;;;;5.32;2.83;;;1024.50;614.40;;;;;;5073653;28;20373;-65
2021/07/30 10:48:21;;;;;;;5.85;2.95;;;1024.50;614.40;;;;;;5073433;28;20090;-70
2021/07/30 10:51:01;;;;;;;3.50;3.10;;;1024.50;588.80;;;;;;5073397;28;20020;-66
2021/07/30 10:53:39;;;;;;;4.75;3.15;;;1024.50;588.80;;;;;;5073269;28;20075;-68
2021/07/30 10:56:17;;;;;;;11.50;3.45;;;1024.50;588.80;;;;;;5073154;28;20025;-68
2021/07/30 10:58:46;;;;;;;10.90;3.97;;;1024.60;588.80;;;;;;5073556;28;20025;-69
2021/07/30 11:01:29;;;;;;;6.80;3.15;;;1024.50;588.80;;;;;;5073516;28;20374;-65
2021/07/30 11:04:05;;;;;;;13.98;3.78;;;1024.60;563.20;;;;;;5073263;28;20025;-67
2021/07/30 11:06:36;;;;;;;26.77;4.65;;;1024.70;588.80;;;;;;5073179;28;20037;-65
2021/07/30 11:09:03;;;;;;;43.60;5.20;;;1024.70;614.40;;;;;;5073151;28;20036;-67
2021/07/30 11:11:46;;;;;;;22.15;4.15;;;1024.70;614.40;;;;;;5075342;28;20021;-68
2021/07/30 11:14:14;;;;;;;31.33;3.55;;;1024.60;588.80;;;;;;5091681;28;20028;-66
2021/07/30 11:16:46;;;;;;;12.48;2.90;;;1024.60;588.80;;;;;;5090598;28;20023;-68
2021/07/30 11:19:14;;;;;;;4.43;2.78;;;1024.60;563.20;;;;;;5093243;28;20020;-65
2021/07/30 11:21:40;;;;;;;9.85;3.40;;;1024.70;588.80;;;;;;5093409;28;20527;-67
2021/07/30 11:24:08;;;;;;;8.63;3.28;;;1024.70;588.80;;;;;;5093710;28;20346;-65
2021/07/30 11:26:35;;;;;;;3.10;2.72;;;1024.70;563.20;;;;;;5093383;28;20048;-70
2021/07/30 11:29:06;;;;;;;5.13;3.05;;;1024.70;563.20;;;;;;5093344;28;20128;-65
2021/07/30 11:31:32;;;;;;;4.88;2.50;;;1024.70;563.20;;;;;;5092291;28;20016;-75
2021/07/30 11:33:59;;;;;;;4.63;2.88;;;1024.70;588.80;;;;;;5093371;28;20527;-65
2021/07/30 11:36:24;;;;;;;7.47;2.88;;;1024.70;588.80;;;;;;5093334;28;20048;-67
2021/07/30 11:38:54;;;;;;;28.90;5.13;;;1024.80;588.80;;;;;;5093321;28;20413;-77
2021/07/30 11:41:21;;;;;;;30.35;4.88;;;1024.80;614.40;;;;;;5094997;28;20430;-69
2021/07/30 11:44:02;;;;;;;46.03;6.50;;;1024.80;588.80;;;;;;5096862;28;20455;-67
2021/07/30 11:46:29;;;;;;;26.85;4.82;;;1024.80;588.80;;;;;;5097045;28;20020;-69
2021/07/30 11:48:56;;;;;;;56.35;7.78;;;1049.60;588.80;;;;;;5096839;28;20028;-66
2021/07/30 11:51:23;;;;;;;26.55;5.93;;;1024.80;588.80;;;;;;5096879;28;20020;-71
2021/07/30 11:53:50;;;;;;;12.60;3.83;;;1024.80;563.20;;;;;;5096801;28;20024;-68
2021/07/30 11:56:20;;;;;;;18.92;4.60;;;1049.60;614.40;;;;;;5096777;28;20024;-68
2021/07/30 11:58:59;;;;;;;11.27;4.00;;;1049.60;614.40;;;;;;5096675;28;20103;-66
2021/07/30 12:01:26;;;;;;;9.73;4.38;;;1024.70;563.20;;;;;;5097284;28;20443;-62
2021/07/30 12:04:12;;;;;;;11.80;3.85;;;1024.70;563.20;;;;;;5096623;28;20150;-70
2021/07/30 12:06:52;;;;;;;13.23;4.13;;;1024.70;563.20;;;;;;5096691;28;20466;-69
2021/07/30 12:09:19;;;;;;;30.05;6.05;;;1024.60;588.80;;;;;;5096286;28;20072;-67
2021/07/30 12:11:51;;;;;;;36.50;5.00;;;1024.70;588.80;;;;;;5096277;28;20077;-60
2021/07/30 12:14:18;;;;;;;39.92;6.03;;;1024.60;614.40;;;;;;5095111;28;20067;-66
2021/07/30 12:16:44;;;;;;;54.38;6.55;;;1024.60;640.00;;;;;;5096233;28;20533;-66
2021/07/30 12:19:10;;;;;;;34.72;5.72;;;1024.60;691.20;;;;;;5096368;28;20059;-65